sensor_id;sensor_type;location;lat;lon;timestamp;pressure;altitude;pressure_sealevel;temperature;humidity
55373;BME280;41249;47.838;16.490;2022-11-20T00:01:22;98968.44;;;-4.53;75.26
55373;BME280;41249;47.838;16.490;2022-11-20T00:03:51;98964.44;;;-4.56;75.09
55373;BME280;41249;47.838;16.490;2022-11-20T00:06:18;98978.28;;;-4.57;75.54
55373;BME280;41249;47.838;16.490;2022-11-20T00:08:45;98978.28;;;-4.57;74.75
55373;BME280;41249;47.838;16.490;2022-11-20T00:11:18;98980.50;;;-4.59;74.57
55373;BME280;41249;47.838;16.490;2022-11-20T00:13:46;98973.19;;;-4.59;75.45
55373;BME280;41249;47.838;16.490;2022-11-20T00:16:16;98963.31;;;-4.55;75.16
55373;BME280;41249;47.838;16.490;2022-11-20T00:18:43;98968.00;;;-4.47;75.21
55373;BME280;41249;47.838;16.490;2022-11-20T00:21:15;98958.53;;;-4.36;74.80
55373;BME280;41249;47.838;16.490;2022-11-20T00:23:43;98960.31;;;-4.31;74.73
55373;BME280;41249;47.838;16.490;2022-11-20T00:26:12;98964.13;;;-4.32;74.67
55373;BME280;41249;47.838;16.490;2022-11-20T00:28:40;98952.31;;;-4.36;74.30
55373;BME280;41249;47.838;16.490;2022-11-20T00:31:09;98956.94;;;-4.37;74.83
55373;BME280;41249;47.838;16.490;2022-11-20T00:33:36;98960.81;;;-4.29;74.41
55373;BME280;41249;47.838;16.490;2022-11-20T00:36:26;98967.84;;;-4.28;74.89
55373;BME280;41249;47.838;16.490;2022-11-20T00:38:52;98978.13;;;-4.16;75.49
55373;BME280;41249;47.838;16.490;2022-11-20T00:41:20;98972.38;;;-4.15;74.94
55373;BME280;41249;47.838;16.490;2022-11-20T00:43:46;98963.81;;;-4.08;75.19
55373;BME280;41249;47.838;16.490;2022-11-20T00:46:16;98969.28;;;-4.00;76.07
55373;BME280;41249;47.838;16.490;2022-11-20T00:48:44;98981.00;;;-3.91;75.38
55373;BME280;41249;47.838;16.490;2022-11-20T00:51:13;98983.19;;;-3.93;75.04
55373;BME280;41249;47.838;16.490;2022-11-20T00:53:40;98981.16;;;-3.87;75.42
55373;BME280;41249;47.838;16.490;2022-11-20T00:56:10;98988.19;;;-3.86;75.74
55373;BME280;41249;47.838;16.490;2022-11-20T00:58:38;98993.00;;;-3.83;75.23
55373;BME280;41249;47.838;16.490;2022-11-20T01:01:08;98991.19;;;-3.88;75.01
55373;BME280;41249;47.838;16.490;2022-11-20T01:03:37;98990.09;;;-3.87;75.19
55373;BME280;41249;47.838;16.490;2022-11-20T01:06:10;99002.84;;;-3.87;74.42
55373;BME280;41249;47.838;16.490;2022-11-20T01:08:38;99002.19;;;-3.93;74.65
55373;BME280;41249;47.838;16.490;2022-11-20T01:11:10;99009.28;;;-3.83;75.08
55373;BME280;41249;47.838;16.490;2022-11-20T01:13:38;99018.97;;;-3.60;74.75
55373;BME280;41249;47.838;16.490;2022-11-20T01:16:09;99015.97;;;-3.58;74.71
55373;BME280;41249;47.838;16.490;2022-11-20T01:18:38;99023.22;;;-3.67;74.15
55373;BME280;41249;47.838;16.490;2022-11-20T01:21:07;99024.25;;;-3.86;74.16
55373;BME280;41249;47.838;16.490;2022-11-20T01:23:36;99026.53;;;-3.79;74.38
55373;BME280;41249;47.838;16.490;2022-11-20T01:26:05;99027.34;;;-3.79;74.35
55373;BME280;41249;47.838;16.490;2022-11-20T01:28:32;99027.69;;;-3.72;75.09
55373;BME280;41249;47.838;16.490;2022-11-20T01:30:59;99025.56;;;-3.52;75.53
55373;BME280;41249;47.838;16.490;2022-11-20T01:33:26;99045.84;;;-3.50;74.95
55373;BME280;41249;47.838;16.490;2022-11-20T01:35:53;99042.97;;;-3.53;74.67
55373;BME280;41249;47.838;16.490;2022-11-20T01:38:28;99041.13;;;-3.66;74.24
55373;BME280;41249;47.838;16.490;2022-11-20T01:40:55;99045.00;;;-3.59;74.43
55373;BME280;41249;47.838;16.490;2022-11-20T01:43:23;99037.72;;;-3.72;74.26
55373;BME280;41249;47.838;16.490;2022-11-20T01:51:00;99033.81;;;-3.88;74.59
55373;BME280;41249;47.838;16.490;2022-11-20T01:53:32;99029.97;;;-3.87;74.17
55373;BME280;41249;47.838;16.490;2022-11-20T01:56:02;99031.09;;;-3.88;74.14
55373;BME280;41249;47.838;16.490;2022-11-20T01:58:33;99029.16;;;-3.88;74.05
55373;BME280;41249;47.838;16.490;2022-11-20T02:01:03;99029.97;;;-3.87;73.18
55373;BME280;41249;47.838;16.490;2022-11-20T02:03:30;99028.44;;;-3.80;74.42
55373;BME280;41249;47.838;16.490;2022-11-20T02:08:38;99031.94;;;-3.79;73.99
55373;BME280;41249;47.838;16.490;2022-11-20T02:11:05;99037.31;;;-3.65;73.77
55373;BME280;41249;47.838;16.490;2022-11-20T02:13:33;99040.66;;;-3.60;74.48
55373;BME280;41249;47.838;16.490;2022-11-20T02:16:29;99047.44;;;-3.49;74.28
55373;BME280;41249;47.838;16.490;2022-11-20T02:18:59;99040.41;;;-3.50;74.02
55373;BME280;41249;47.838;16.490;2022-11-20T02:24:18;99024.94;;;-3.49;73.99
55373;BME280;41249;47.838;16.490;2022-11-20T02:26:50;99034.00;;;-3.54;73.83
55373;BME280;41249;47.838;16.490;2022-11-20T02:29:25;99025.69;;;-3.57;74.66
55373;BME280;41249;47.838;16.490;2022-11-20T02:31:54;99010.75;;;-3.46;74.73
55373;BME280;41249;47.838;16.490;2022-11-20T02:34:21;99017.19;;;-3.34;75.04
55373;BME280;41249;47.838;16.490;2022-11-20T02:36:49;99001.91;;;-3.21;75.98
55373;BME280;41249;47.838;16.490;2022-11-20T02:39:19;98996.00;;;-3.23;76.74
55373;BME280;41249;47.838;16.490;2022-11-20T02:41:47;98986.38;;;-3.29;76.37
55373;BME280;41249;47.838;16.490;2022-11-20T02:44:14;98984.16;;;-3.27;76.29
55373;BME280;41249;47.838;16.490;2022-11-20T02:46:40;98976.28;;;-3.46;76.31
55373;BME280;41249;47.838;16.490;2022-11-20T02:49:07;98980.81;;;-3.63;76.95
55373;BME280;41249;47.838;16.490;2022-11-20T02:51:34;98975.66;;;-3.74;76.60
55373;BME280;41249;47.838;16.490;2022-11-20T02:54:00;98987.59;;;-3.83;77.60
55373;BME280;41249;47.838;16.490;2022-11-20T02:56:27;98986.91;;;-3.89;77.94
55373;BME280;41249;47.838;16.490;2022-11-20T02:58:54;98981.97;;;-3.87;77.66
55373;BME280;41249;47.838;16.490;2022-11-20T03:01:22;98987.53;;;-3.92;78.15
55373;BME280;41249;47.838;16.490;2022-11-20T03:03:48;98990.84;;;-3.95;77.69
55373;BME280;41249;47.838;16.490;2022-11-20T03:06:16;98984.69;;;-3.87;78.28
55373;BME280;41249;47.838;16.490;2022-11-20T03:08:43;98979.59;;;-3.88;77.75
55373;BME280;41249;47.838;16.490;2022-11-20T03:11:10;98979.00;;;-3.77;78.32
55373;BME280;41249;47.838;16.490;2022-11-20T03:13:37;98977.63;;;-3.65;77.88
55373;BME280;41249;47.838;16.490;2022-11-20T03:16:14;98970.63;;;-3.58;77.34
55373;BME280;41249;47.838;16.490;2022-11-20T03:18:42;98988.38;;;-3.52;77.70
55373;BME280;41249;47.838;16.490;2022-11-20T03:21:10;98970.13;;;-3.60;76.58
55373;BME280;41249;47.838;16.490;2022-11-20T03:23:37;98966.78;;;-3.65;76.85
55373;BME280;41249;47.838;16.490;2022-11-20T03:26:24;98955.41;;;-3.76;76.97
55373;BME280;41249;47.838;16.490;2022-11-20T03:28:56;98962.25;;;-3.79;77.50
55373;BME280;41249;47.838;16.490;2022-11-20T03:31:25;98959.56;;;-3.70;77.04
55373;BME280;41249;47.838;16.490;2022-11-20T03:33:52;98957.44;;;-3.82;76.92
55373;BME280;41249;47.838;16.490;2022-11-20T03:36:20;98961.38;;;-3.88;77.56
55373;BME280;41249;47.838;16.490;2022-11-20T03:38:47;98965.91;;;-3.83;76.99
55373;BME280;41249;47.838;16.490;2022-11-20T03:41:19;98970.72;;;-3.72;78.01
55373;BME280;41249;47.838;16.490;2022-11-20T03:43:56;98965.97;;;-3.66;77.45
55373;BME280;41249;47.838;16.490;2022-11-20T03:46:24;98955.03;;;-3.83;76.96
55373;BME280;41249;47.838;16.490;2022-11-20T03:48:51;98948.63;;;-3.87;77.44
55373;BME280;41249;47.838;16.490;2022-11-20T03:51:22;98938.72;;;-3.92;77.14
55373;BME280;41249;47.838;16.490;2022-11-20T03:53:51;98935.88;;;-3.87;77.93
55373;BME280;41249;47.838;16.490;2022-11-20T03:56:20;98942.78;;;-3.81;77.57
55373;BME280;41249;47.838;16.490;2022-11-20T03:58:48;98949.16;;;-3.77;77.65
55373;BME280;41249;47.838;16.490;2022-11-20T04:01:17;98947.41;;;-3.81;77.51
55373;BME280;41249;47.838;16.490;2022-11-20T04:03:45;98941.16;;;-3.82;78.16
55373;BME280;41249;47.838;16.490;2022-11-20T04:06:20;98942.81;;;-3.72;78.32
55373;BME280;41249;47.838;16.490;2022-11-20T04:08:48;98943.28;;;-3.70;78.77
55373;BME280;41249;47.838;16.490;2022-11-20T04:11:20;98944.34;;;-3.80;78.41
55373;BME280;41249;47.838;16.490;2022-11-20T04:13:50;98933.03;;;-3.82;78.33
55373;BME280;41249;47.838;16.490;2022-11-20T04:16:17;98929.84;;;-3.84;78.57
55373;BME280;41249;47.838;16.490;2022-11-20T04:18:44;98926.53;;;-3.72;78.82
55373;BME280;41249;47.838;16.490;2022-11-20T04:21:11;98913.09;;;-3.86;79.09
55373;BME280;41249;47.838;16.490;2022-11-20T04:23:38;98900.00;;;-4.14;78.81
55373;BME280;41249;47.838;16.490;2022-11-20T04:26:07;98907.09;;;-4.27;80.00
55373;BME280;41249;47.838;16.490;2022-11-20T04:28:35;98912.88;;;-4.20;78.95
55373;BME280;41249;47.838;16.490;2022-11-20T04:31:06;98916.13;;;-4.09;79.02
55373;BME280;41249;47.838;16.490;2022-11-20T04:33:34;98908.63;;;-4.12;79.42
55373;BME280;41249;47.838;16.490;2022-11-20T04:36:10;98906.34;;;-4.19;79.47
55373;BME280;41249;47.838;16.490;2022-11-20T04:38:38;98896.25;;;-4.27;80.10
55373;BME280;41249;47.838;16.490;2022-11-20T04:41:06;98923.81;;;-4.33;79.83
55373;BME280;41249;47.838;16.490;2022-11-20T04:43:34;98917.44;;;-4.07;80.04
55373;BME280;41249;47.838;16.490;2022-11-20T04:46:01;98914.38;;;-4.05;79.79
55373;BME280;41249;47.838;16.490;2022-11-20T04:48:29;98906.69;;;-4.20;80.29
55373;BME280;41249;47.838;16.490;2022-11-20T04:50:56;98897.44;;;-4.42;79.82
55373;BME280;41249;47.838;16.490;2022-11-20T04:53:23;98889.00;;;-4.62;80.50
55373;BME280;41249;47.838;16.490;2022-11-20T04:55:50;98880.34;;;-4.73;81.23
55373;BME280;41249;47.838;16.490;2022-11-20T04:58:16;98881.09;;;-4.81;81.28
55373;BME280;41249;47.838;16.490;2022-11-20T05:00:43;98894.31;;;-4.79;80.72
55373;BME280;41249;47.838;16.490;2022-11-20T05:03:10;98900.72;;;-4.75;80.72
55373;BME280;41249;47.838;16.490;2022-11-20T05:05:36;98899.00;;;-4.71;79.83
55373;BME280;41249;47.838;16.490;2022-11-20T05:08:03;98894.06;;;-4.69;80.09
55373;BME280;41249;47.838;16.490;2022-11-20T05:10:30;98897.47;;;-4.64;80.17
55373;BME280;41249;47.838;16.490;2022-11-20T05:12:57;98887.72;;;-4.65;79.83
55373;BME280;41249;47.838;16.490;2022-11-20T05:15:24;98899.97;;;-4.67;79.63
55373;BME280;41249;47.838;16.490;2022-11-20T05:17:51;98898.03;;;-4.75;79.69
55373;BME280;41249;47.838;16.490;2022-11-20T05:20:19;98892.19;;;-4.82;80.60
55373;BME280;41249;47.838;16.490;2022-11-20T05:22:45;98901.25;;;-4.87;80.15
55373;BME280;41249;47.838;16.490;2022-11-20T05:25:12;98894.53;;;-4.89;80.56
55373;BME280;41249;47.838;16.490;2022-11-20T05:27:39;98895.25;;;-4.97;80.01
55373;BME280;41249;47.838;16.490;2022-11-20T05:30:06;98892.19;;;-5.05;80.59
55373;BME280;41249;47.838;16.490;2022-11-20T05:32:33;98892.69;;;-5.03;80.54
55373;BME280;41249;47.838;16.490;2022-11-20T05:35:00;98898.97;;;-4.93;80.51
55373;BME280;41249;47.838;16.490;2022-11-20T05:37:27;98887.09;;;-4.84;79.83
55373;BME280;41249;47.838;16.490;2022-11-20T05:39:53;98876.06;;;-4.87;80.15
55373;BME280;41249;47.838;16.490;2022-11-20T05:42:20;98879.69;;;-4.78;80.55
55373;BME280;41249;47.838;16.490;2022-11-20T05:45:03;98880.97;;;-4.76;80.48
55373;BME280;41249;47.838;16.490;2022-11-20T05:47:32;98882.88;;;-4.76;80.16
55373;BME280;41249;47.838;16.490;2022-11-20T05:49:59;98875.84;;;-4.77;80.29
55373;BME280;41249;47.838;16.490;2022-11-20T05:52:29;98879.31;;;-4.85;80.54
55373;BME280;41249;47.838;16.490;2022-11-20T05:54:56;98882.88;;;-4.76;80.25
55373;BME280;41249;47.838;16.490;2022-11-20T05:57:23;98890.75;;;-4.66;79.66
55373;BME280;41249;47.838;16.490;2022-11-20T05:59:50;98889.56;;;-4.52;80.48
55373;BME280;41249;47.838;16.490;2022-11-20T06:02:16;98897.25;;;-4.45;79.75
55373;BME280;41249;47.838;16.490;2022-11-20T06:04:43;98895.69;;;-4.46;80.18
55373;BME280;41249;47.838;16.490;2022-11-20T06:07:10;98904.47;;;-4.41;80.26
55373;BME280;41249;47.838;16.490;2022-11-20T06:09:36;98893.53;;;-4.36;79.99
55373;BME280;41249;47.838;16.490;2022-11-20T06:12:03;98910.25;;;-4.33;79.70
55373;BME280;41249;47.838;16.490;2022-11-20T06:14:30;98921.94;;;-4.24;80.54
55373;BME280;41249;47.838;16.490;2022-11-20T06:16:57;98931.50;;;-4.27;79.87
55373;BME280;41249;47.838;16.490;2022-11-20T06:19:23;98941.59;;;-4.19;79.50
55373;BME280;41249;47.838;16.490;2022-11-20T06:21:50;98943.97;;;-4.17;79.93
55373;BME280;41249;47.838;16.490;2022-11-20T06:24:17;98952.44;;;-4.19;80.18
55373;BME280;41249;47.838;16.490;2022-11-20T06:26:44;98952.25;;;-4.22;80.08
55373;BME280;41249;47.838;16.490;2022-11-20T06:29:11;98947.69;;;-4.13;80.55
55373;BME280;41249;47.838;16.490;2022-11-20T06:31:38;98960.19;;;-4.04;80.85
55373;BME280;41249;47.838;16.490;2022-11-20T06:34:06;98958.31;;;-3.95;80.95
55373;BME280;41249;47.838;16.490;2022-11-20T06:36:33;98967.44;;;-3.91;79.99
55373;BME280;41249;47.838;16.490;2022-11-20T06:39:00;98975.25;;;-3.89;81.01
55373;BME280;41249;47.838;16.490;2022-11-20T06:41:27;98968.63;;;-3.75;80.63
55373;BME280;41249;47.838;16.490;2022-11-20T06:43:54;98964.50;;;-3.72;79.94
55373;BME280;41249;47.838;16.490;2022-11-20T06:46:21;98964.72;;;-3.60;80.29
55373;BME280;41249;47.838;16.490;2022-11-20T06:48:48;98968.06;;;-3.63;79.95
55373;BME280;41249;47.838;16.490;2022-11-20T06:51:16;98975.59;;;-3.51;80.79
55373;BME280;41249;47.838;16.490;2022-11-20T06:53:43;98981.03;;;-3.51;80.01
55373;BME280;41249;47.838;16.490;2022-11-20T06:56:09;98969.84;;;-3.58;79.20
55373;BME280;41249;47.838;16.490;2022-11-20T06:58:36;98974.94;;;-3.57;79.26
55373;BME280;41249;47.838;16.490;2022-11-20T07:01:05;98977.03;;;-3.54;79.11
55373;BME280;41249;47.838;16.490;2022-11-20T07:03:32;98983.47;;;-3.41;79.27
55373;BME280;41249;47.838;16.490;2022-11-20T07:06:00;98989.59;;;-3.27;79.54
55373;BME280;41249;47.838;16.490;2022-11-20T07:08:28;98995.25;;;-3.07;79.14
55373;BME280;41249;47.838;16.490;2022-11-20T07:11:02;98990.91;;;-3.08;78.85
55373;BME280;41249;47.838;16.490;2022-11-20T07:13:30;98993.34;;;-3.06;79.31
55373;BME280;41249;47.838;16.490;2022-11-20T07:16:05;98997.66;;;-2.96;78.77
55373;BME280;41249;47.838;16.490;2022-11-20T07:18:33;98992.25;;;-2.88;78.98
55373;BME280;41249;47.838;16.490;2022-11-20T07:21:03;98991.13;;;-2.87;79.32
55373;BME280;41249;47.838;16.490;2022-11-20T07:23:31;99005.88;;;-2.62;79.27
55373;BME280;41249;47.838;16.490;2022-11-20T07:26:02;99014.88;;;-2.36;79.43
55373;BME280;41249;47.838;16.490;2022-11-20T07:28:29;99015.00;;;-2.32;78.68
55373;BME280;41249;47.838;16.490;2022-11-20T07:30:55;99020.94;;;-2.22;79.07
55373;BME280;41249;47.838;16.490;2022-11-20T07:33:22;99019.03;;;-2.21;78.91
55373;BME280;41249;47.838;16.490;2022-11-20T07:35:49;99010.84;;;-2.13;79.68
55373;BME280;41249;47.838;16.490;2022-11-20T07:38:16;99012.75;;;-2.13;79.55
55373;BME280;41249;47.838;16.490;2022-11-20T07:40:42;99007.97;;;-1.99;79.73
55373;BME280;41249;47.838;16.490;2022-11-20T07:43:09;99025.06;;;-1.90;79.36
55373;BME280;41249;47.838;16.490;2022-11-20T07:45:36;99024.25;;;-1.82;79.42
55373;BME280;41249;47.838;16.490;2022-11-20T07:48:03;99028.91;;;-1.91;79.15
55373;BME280;41249;47.838;16.490;2022-11-20T07:50:29;99013.88;;;-1.89;79.21
55373;BME280;41249;47.838;16.490;2022-11-20T07:53:06;99015.25;;;-1.65;79.31
55373;BME280;41249;47.838;16.490;2022-11-20T07:55:33;99013.66;;;-1.66;77.83
55373;BME280;41249;47.838;16.490;2022-11-20T07:58:00;99015.09;;;-1.60;79.16
55373;BME280;41249;47.838;16.490;2022-11-20T08:00:26;99024.84;;;-1.59;78.29
55373;BME280;41249;47.838;16.490;2022-11-20T08:02:53;99020.06;;;-1.62;78.27
55373;BME280;41249;47.838;16.490;2022-11-20T08:05:20;99026.78;;;-1.60;77.33
55373;BME280;41249;47.838;16.490;2022-11-20T08:07:46;99022.13;;;-1.68;78.15
55373;BME280;41249;47.838;16.490;2022-11-20T08:10:15;99022.47;;;-1.69;76.97
55373;BME280;41249;47.838;16.490;2022-11-20T08:12:47;99013.97;;;-1.68;76.92
55373;BME280;41249;47.838;16.490;2022-11-20T08:15:33;99016.53;;;-1.63;77.50
55373;BME280;41249;47.838;16.490;2022-11-20T08:18:08;99031.72;;;-1.53;77.10
55373;BME280;41249;47.838;16.490;2022-11-20T08:20:55;99022.59;;;-1.49;76.34
55373;BME280;41249;47.838;16.490;2022-11-20T08:23:22;99025.72;;;-1.30;76.94
55373;BME280;41249;47.838;16.490;2022-11-20T08:25:49;99032.38;;;-1.10;76.79
55373;BME280;41249;47.838;16.490;2022-11-20T08:28:16;99045.44;;;-0.95;75.75
55373;BME280;41249;47.838;16.490;2022-11-20T08:30:47;99040.53;;;-1.10;76.34
55373;BME280;41249;47.838;16.490;2022-11-20T08:33:14;99044.19;;;-0.97;75.59
55373;BME280;41249;47.838;16.490;2022-11-20T08:35:41;99051.94;;;-0.79;75.79
55373;BME280;41249;47.838;16.490;2022-11-20T08:38:09;99035.25;;;-0.77;75.56
55373;BME280;41249;47.838;16.490;2022-11-20T08:40:35;99043.81;;;-0.87;76.51
55373;BME280;41249;47.838;16.490;2022-11-20T08:43:02;99043.72;;;-0.70;76.82
55373;BME280;41249;47.838;16.490;2022-11-20T08:45:29;99037.72;;;-0.64;75.17
55373;BME280;41249;47.838;16.490;2022-11-20T08:48:01;99039.09;;;-0.78;74.82
55373;BME280;41249;47.838;16.490;2022-11-20T08:50:28;99022.94;;;-0.83;74.97
55373;BME280;41249;47.838;16.490;2022-11-20T08:52:54;99030.53;;;-0.89;75.50
55373;BME280;41249;47.838;16.490;2022-11-20T08:55:21;99021.81;;;-0.82;74.80
55373;BME280;41249;47.838;16.490;2022-11-20T08:57:47;99029.63;;;-0.72;75.44
55373;BME280;41249;47.838;16.490;2022-11-20T09:00:16;99023.38;;;-0.73;73.44
55373;BME280;41249;47.838;16.490;2022-11-20T09:02:43;99022.97;;;-0.63;74.27
55373;BME280;41249;47.838;16.490;2022-11-20T09:05:10;99023.38;;;-0.73;75.48
55373;BME280;41249;47.838;16.490;2022-11-20T09:07:36;99033.34;;;-0.77;75.34
55373;BME280;41249;47.838;16.490;2022-11-20T09:10:03;99030.38;;;-0.92;74.65
55373;BME280;41249;47.838;16.490;2022-11-20T09:12:49;99032.63;;;-0.94;74.41
55373;BME280;41249;47.838;16.490;2022-11-20T09:15:15;99031.88;;;-0.74;75.58
55373;BME280;41249;47.838;16.490;2022-11-20T09:17:42;99025.75;;;-0.71;75.29
55373;BME280;41249;47.838;16.490;2022-11-20T09:20:09;99034.16;;;-0.56;75.21
55373;BME280;41249;47.838;16.490;2022-11-20T09:22:39;99031.81;;;-0.66;74.99
55373;BME280;41249;47.838;16.490;2022-11-20T09:25:06;99037.13;;;-0.98;74.43
55373;BME280;41249;47.838;16.490;2022-11-20T09:27:33;99030.16;;;-1.17;73.40
55373;BME280;41249;47.838;16.490;2022-11-20T09:29:59;99035.34;;;-0.94;73.86
55373;BME280;41249;47.838;16.490;2022-11-20T09:32:26;99028.25;;;-0.58;73.42
55373;BME280;41249;47.838;16.490;2022-11-20T09:34:52;99028.59;;;-0.59;72.54
55373;BME280;41249;47.838;16.490;2022-11-20T09:37:19;99027.50;;;-0.46;72.47
55373;BME280;41249;47.838;16.490;2022-11-20T09:39:45;99034.56;;;-0.45;73.84
55373;BME280;41249;47.838;16.490;2022-11-20T09:45:15;99009.56;;;-0.47;74.29
55373;BME280;41249;47.838;16.490;2022-11-20T09:47:58;99015.81;;;-0.67;73.25
55373;BME280;41249;47.838;16.490;2022-11-20T09:50:52;99011.06;;;-0.58;73.99
55373;BME280;41249;47.838;16.490;2022-11-20T09:55:51;99002.03;;;-0.09;73.14
55373;BME280;41249;47.838;16.490;2022-11-20T09:58:29;98991.44;;;0.10;71.34
55373;BME280;41249;47.838;16.490;2022-11-20T10:01:09;98994.88;;;0.19;71.92
55373;BME280;41249;47.838;16.490;2022-11-20T10:04:03;98999.16;;;0.08;69.68
55373;BME280;41249;47.838;16.490;2022-11-20T10:06:31;99006.00;;;0.14;68.83
55373;BME280;41249;47.838;16.490;2022-11-20T10:09:18;99005.22;;;0.71;70.66
55373;BME280;41249;47.838;16.490;2022-11-20T10:11:58;99004.34;;;0.91;70.63
55373;BME280;41249;47.838;16.490;2022-11-20T10:14:45;99009.16;;;1.06;69.57
55373;BME280;41249;47.838;16.490;2022-11-20T10:17:27;98995.38;;;0.91;69.92
55373;BME280;41249;47.838;16.490;2022-11-20T10:25:46;98990.44;;;0.72;71.09
55373;BME280;41249;47.838;16.490;2022-11-20T10:31:02;98989.44;;;0.89;69.56
55373;BME280;41249;47.838;16.490;2022-11-20T10:33:33;98982.59;;;1.31;69.04
55373;BME280;41249;47.838;16.490;2022-11-20T10:36:40;98989.91;;;1.79;66.24
55373;BME280;41249;47.838;16.490;2022-11-20T10:39:24;98985.09;;;1.88;67.34
55373;BME280;41249;47.838;16.490;2022-11-20T10:41:53;98990.00;;;1.82;66.60
55373;BME280;41249;47.838;16.490;2022-11-20T10:44:22;98982.59;;;1.83;68.21
55373;BME280;41249;47.838;16.490;2022-11-20T10:47:15;98985.63;;;1.93;69.03
55373;BME280;41249;47.838;16.490;2022-11-20T10:49:47;98984.25;;;1.99;68.35
55373;BME280;41249;47.838;16.490;2022-11-20T10:55:33;98976.97;;;1.91;69.07
55373;BME280;41249;47.838;16.490;2022-11-20T10:58:30;98967.69;;;1.96;66.36
55373;BME280;41249;47.838;16.490;2022-11-20T11:01:20;98971.44;;;2.03;68.57
55373;BME280;41249;47.838;16.490;2022-11-20T11:03:52;98976.72;;;1.96;69.36
55373;BME280;41249;47.838;16.490;2022-11-20T11:06:39;98974.88;;;1.73;68.68
55373;BME280;41249;47.838;16.490;2022-11-20T11:09:16;98976.88;;;1.88;68.10
55373;BME280;41249;47.838;16.490;2022-11-20T11:11:45;98967.13;;;1.75;68.73
55373;BME280;41249;47.838;16.490;2022-11-20T11:14:14;98962.09;;;2.04;68.21
55373;BME280;41249;47.838;16.490;2022-11-20T11:16:55;98958.78;;;1.99;67.47
55373;BME280;41249;47.838;16.490;2022-11-20T11:19:23;98953.63;;;2.09;68.62
55373;BME280;41249;47.838;16.490;2022-11-20T11:21:52;98954.00;;;2.24;68.96
55373;BME280;41249;47.838;16.490;2022-11-20T11:24:28;98946.75;;;2.31;68.07
55373;BME280;41249;47.838;16.490;2022-11-20T11:27:13;98946.06;;;2.34;68.09
55373;BME280;41249;47.838;16.490;2022-11-20T11:29:43;98937.00;;;2.02;69.04
55373;BME280;41249;47.838;16.490;2022-11-20T11:32:18;98938.16;;;1.74;69.57
55373;BME280;41249;47.838;16.490;2022-11-20T11:35:23;98936.72;;;1.92;67.91
55373;BME280;41249;47.838;16.490;2022-11-20T11:37:51;98937.75;;;2.15;68.42
55373;BME280;41249;47.838;16.490;2022-11-20T11:40:21;98938.09;;;2.29;67.98
55373;BME280;41249;47.838;16.490;2022-11-20T11:42:59;98927.72;;;2.50;67.57
55373;BME280;41249;47.838;16.490;2022-11-20T11:45:28;98938.06;;;2.13;66.22
55373;BME280;41249;47.838;16.490;2022-11-20T11:47:57;98932.00;;;2.20;67.52
55373;BME280;41249;47.838;16.490;2022-11-20T11:50:26;98926.91;;;2.50;67.52
55373;BME280;41249;47.838;16.490;2022-11-20T11:53:09;98939.88;;;2.68;66.66
55373;BME280;41249;47.838;16.490;2022-11-20T12:04:05;98926.78;;;2.93;66.77
55373;BME280;41249;47.838;16.490;2022-11-20T12:06:37;98931.59;;;2.65;66.46
55373;BME280;41249;47.838;16.490;2022-11-20T12:09:09;98934.84;;;2.39;65.55
55373;BME280;41249;47.838;16.490;2022-11-20T12:12:02;98930.13;;;1.81;64.50
55373;BME280;41249;47.838;16.490;2022-11-20T12:14:37;98928.97;;;2.09;67.09
55373;BME280;41249;47.838;16.490;2022-11-20T12:17:09;98929.63;;;2.34;67.73
55373;BME280;41249;47.838;16.490;2022-11-20T12:19:37;98925.25;;;1.74;67.24
55373;BME280;41249;47.838;16.490;2022-11-20T12:25:14;98925.44;;;1.54;68.73
55373;BME280;41249;47.838;16.490;2022-11-20T12:28:03;98924.56;;;1.49;68.87
55373;BME280;41249;47.838;16.490;2022-11-20T12:30:33;98919.78;;;1.74;68.81
55373;BME280;41249;47.838;16.490;2022-11-20T12:38:45;98911.44;;;1.55;69.35
55373;BME280;41249;47.838;16.490;2022-11-20T12:44:35;98912.19;;;1.68;68.43
55373;BME280;41249;47.838;16.490;2022-11-20T13:01:46;98906.34;;;0.90;70.08
55373;BME280;41249;47.838;16.490;2022-11-20T13:06:56;98902.34;;;0.99;69.78
55373;BME280;41249;47.838;16.490;2022-11-20T13:09:24;98906.69;;;1.00;70.49
55373;BME280;41249;47.838;16.490;2022-11-20T13:12:06;98905.97;;;0.91;70.64
55373;BME280;41249;47.838;16.490;2022-11-20T13:14:42;98916.22;;;0.94;70.70
55373;BME280;41249;47.838;16.490;2022-11-20T13:17:16;98910.97;;;1.01;70.99
55373;BME280;41249;47.838;16.490;2022-11-20T13:19:55;98906.06;;;1.19;71.18
55373;BME280;41249;47.838;16.490;2022-11-20T13:22:42;98906.59;;;1.64;69.84
55373;BME280;41249;47.838;16.490;2022-11-20T13:25:10;98906.81;;;2.14;69.49
55373;BME280;41249;47.838;16.490;2022-11-20T13:27:48;98899.41;;;2.15;68.41
55373;BME280;41249;47.838;16.490;2022-11-20T13:30:18;98895.16;;;2.33;68.56
55373;BME280;41249;47.838;16.490;2022-11-20T13:33:07;98902.25;;;2.34;67.10
55373;BME280;41249;47.838;16.490;2022-11-20T13:35:37;98897.47;;;2.31;68.18
55373;BME280;41249;47.838;16.490;2022-11-20T13:38:10;98895.22;;;2.05;68.41
55373;BME280;41249;47.838;16.490;2022-11-20T13:40:51;98891.13;;;2.27;68.06
55373;BME280;41249;47.838;16.490;2022-11-20T13:43:28;98886.78;;;2.57;68.22
55373;BME280;41249;47.838;16.490;2022-11-20T13:46:04;98878.47;;;2.54;68.63
55373;BME280;41249;47.838;16.490;2022-11-20T13:56:45;98866.63;;;2.19;69.09
55373;BME280;41249;47.838;16.490;2022-11-20T14:02:20;98868.56;;;2.02;69.71
55373;BME280;41249;47.838;16.490;2022-11-20T14:04:50;98873.06;;;1.95;70.21
55373;BME280;41249;47.838;16.490;2022-11-20T14:07:21;98869.41;;;1.75;70.50
55373;BME280;41249;47.838;16.490;2022-11-20T14:09:57;98883.13;;;1.63;70.57
55373;BME280;41249;47.838;16.490;2022-11-20T14:12:33;98872.16;;;1.47;71.00
55373;BME280;41249;47.838;16.490;2022-11-20T14:15:00;98875.94;;;1.31;70.82
55373;BME280;41249;47.838;16.490;2022-11-20T14:17:34;98884.88;;;1.28;70.08
55373;BME280;41249;47.838;16.490;2022-11-20T14:20:04;98875.44;;;1.01;71.73
55373;BME280;41249;47.838;16.490;2022-11-20T14:22:31;98879.13;;;0.93;70.95
55373;BME280;41249;47.838;16.490;2022-11-20T14:27:40;98877.50;;;0.80;71.71
55373;BME280;41249;47.838;16.490;2022-11-20T14:30:16;98871.84;;;0.61;72.34